Terminal Aerodrome Forecast
Issued by NWS

Home | Current Version | Previous Version | Graphics & Text | Print | Product List | Glossary On
Versions: 1 2 3 4 5 6 7 8 9 10 11 12 13 14 15 16 17 18 19
000
FTUS43 KABR 231700
TAFATY
TAF
KATY 231720Z 2318/2418 17018G23KT P6SM -RA OVC090
     FM232200 16013G19KT P6SM OVC050
     FM240300 15010KT P6SM OVC015
     FM240900 17008KT 3SM BR OVC007
     FM241600 19008KT P6SM OVC015=

USA.gov is the U.S. government's official web portal to all federal, state and local government web resources and services.